sensor_id;sensor_type;location;lat;lon;timestamp;P1;durP1;ratioP1;P2;durP2;ratioP2
7829;SDS011;3960;51.86894000;5.39848000;2023-01-28T00:00:25;9.70;;;5.93;;
7829;SDS011;3960;51.86894000;5.39848000;2023-01-28T00:02:50;9.43;;;5.78;;
7829;SDS011;3960;51.86894000;5.39848000;2023-01-28T00:05:16;8.23;;;5.93;;
7829;SDS011;3960;51.86894000;5.39848000;2023-01-28T00:07:41;8.50;;;6.05;;
7829;SDS011;3960;51.86894000;5.39848000;2023-01-28T00:10:06;8.15;;;6.50;;
7829;SDS011;3960;51.86894000;5.39848000;2023-01-28T00:12:32;6.82;;;5.90;;
7829;SDS011;3960;51.86894000;5.39848000;2023-01-28T00:14:57;8.25;;;6.05;;
7829;SDS011;3960;51.86894000;5.39848000;2023-01-28T00:17:22;10.10;;;6.10;;
7829;SDS011;3960;51.86894000;5.39848000;2023-01-28T00:19:48;8.32;;;6.30;;
7829;SDS011;3960;51.86894000;5.39848000;2023-01-28T00:22:13;8.63;;;6.47;;
7829;SDS011;3960;51.86894000;5.39848000;2023-01-28T00:24:39;7.95;;;6.30;;
7829;SDS011;3960;51.86894000;5.39848000;2023-01-28T00:27:04;7.15;;;5.97;;
7829;SDS011;3960;51.86894000;5.39848000;2023-01-28T00:29:29;7.72;;;6.45;;
7829;SDS011;3960;51.86894000;5.39848000;2023-01-28T00:31:55;8.52;;;6.80;;
7829;SDS011;3960;51.86894000;5.39848000;2023-01-28T00:34:20;8.57;;;6.68;;
7829;SDS011;3960;51.86894000;5.39848000;2023-01-28T00:36:46;8.57;;;6.70;;
7829;SDS011;3960;51.86894000;5.39848000;2023-01-28T00:39:21;9.18;;;6.60;;
7829;SDS011;3960;51.86894000;5.39848000;2023-01-28T00:41:49;10.02;;;6.43;;
7829;SDS011;3960;51.86894000;5.39848000;2023-01-28T00:44:14;8.60;;;6.30;;
7829;SDS011;3960;51.86894000;5.39848000;2023-01-28T00:46:39;8.93;;;7.10;;
7829;SDS011;3960;51.86894000;5.39848000;2023-01-28T00:49:05;9.90;;;6.70;;
7829;SDS011;3960;51.86894000;5.39848000;2023-01-28T00:51:31;8.55;;;6.57;;
7829;SDS011;3960;51.86894000;5.39848000;2023-01-28T00:53:56;8.75;;;6.68;;
7829;SDS011;3960;51.86894000;5.39848000;2023-01-28T00:56:22;8.25;;;6.63;;
7829;SDS011;3960;51.86894000;5.39848000;2023-01-28T00:58:47;9.00;;;7.03;;
7829;SDS011;3960;51.86894000;5.39848000;2023-01-28T01:01:17;7.40;;;6.38;;
7829;SDS011;3960;51.86894000;5.39848000;2023-01-28T01:03:45;8.23;;;6.28;;
7829;SDS011;3960;51.86894000;5.39848000;2023-01-28T01:06:12;8.85;;;6.85;;
7829;SDS011;3960;51.86894000;5.39848000;2023-01-28T01:08:39;9.50;;;7.03;;
7829;SDS011;3960;51.86894000;5.39848000;2023-01-28T01:11:08;9.13;;;7.10;;
7829;SDS011;3960;51.86894000;5.39848000;2023-01-28T01:13:34;9.57;;;7.30;;
7829;SDS011;3960;51.86894000;5.39848000;2023-01-28T01:16:01;11.02;;;7.20;;
7829;SDS011;3960;51.86894000;5.39848000;2023-01-28T01:18:26;9.02;;;7.03;;
7829;SDS011;3960;51.86894000;5.39848000;2023-01-28T01:20:52;10.13;;;7.65;;
7829;SDS011;3960;51.86894000;5.39848000;2023-01-28T01:23:22;12.00;;;7.33;;
7829;SDS011;3960;51.86894000;5.39848000;2023-01-28T01:25:48;10.60;;;7.38;;
7829;SDS011;3960;51.86894000;5.39848000;2023-01-28T01:28:14;11.32;;;7.75;;
7829;SDS011;3960;51.86894000;5.39848000;2023-01-28T01:30:39;9.88;;;7.53;;
7829;SDS011;3960;51.86894000;5.39848000;2023-01-28T01:33:04;9.77;;;7.50;;
7829;SDS011;3960;51.86894000;5.39848000;2023-01-28T01:35:30;9.45;;;7.20;;
7829;SDS011;3960;51.86894000;5.39848000;2023-01-28T01:37:55;10.20;;;7.85;;
7829;SDS011;3960;51.86894000;5.39848000;2023-01-28T01:40:20;10.48;;;7.57;;
7829;SDS011;3960;51.86894000;5.39848000;2023-01-28T01:42:45;10.65;;;7.55;;
7829;SDS011;3960;51.86894000;5.39848000;2023-01-28T01:45:11;10.70;;;7.82;;
7829;SDS011;3960;51.86894000;5.39848000;2023-01-28T01:47:40;11.13;;;7.18;;
7829;SDS011;3960;51.86894000;5.39848000;2023-01-28T01:52:56;9.90;;;7.32;;
7829;SDS011;3960;51.86894000;5.39848000;2023-01-28T01:55:26;10.63;;;7.60;;
7829;SDS011;3960;51.86894000;5.39848000;2023-01-28T01:57:57;10.38;;;7.72;;
7829;SDS011;3960;51.86894000;5.39848000;2023-01-28T02:00:26;10.20;;;7.50;;
7829;SDS011;3960;51.86894000;5.39848000;2023-01-28T02:02:51;11.10;;;7.43;;
7829;SDS011;3960;51.86894000;5.39848000;2023-01-28T02:05:18;10.77;;;7.57;;
7829;SDS011;3960;51.86894000;5.39848000;2023-01-28T02:07:46;11.27;;;8.02;;
7829;SDS011;3960;51.86894000;5.39848000;2023-01-28T02:10:13;11.15;;;8.00;;
7829;SDS011;3960;51.86894000;5.39848000;2023-01-28T02:12:39;12.25;;;7.68;;
7829;SDS011;3960;51.86894000;5.39848000;2023-01-28T02:15:10;11.77;;;7.55;;
7829;SDS011;3960;51.86894000;5.39848000;2023-01-28T02:17:38;11.48;;;8.00;;
7829;SDS011;3960;51.86894000;5.39848000;2023-01-28T02:20:08;11.32;;;8.68;;
7829;SDS011;3960;51.86894000;5.39848000;2023-01-28T02:22:49;11.65;;;7.88;;
7829;SDS011;3960;51.86894000;5.39848000;2023-01-28T02:28:12;11.75;;;7.78;;
7829;SDS011;3960;51.86894000;5.39848000;2023-01-28T02:34:12;13.05;;;7.90;;
7829;SDS011;3960;51.86894000;5.39848000;2023-01-28T02:39:22;11.60;;;7.70;;
7829;SDS011;3960;51.86894000;5.39848000;2023-01-28T02:41:57;11.07;;;7.72;;
7829;SDS011;3960;51.86894000;5.39848000;2023-01-28T02:44:28;10.43;;;6.97;;
7829;SDS011;3960;51.86894000;5.39848000;2023-01-28T02:46:53;11.35;;;7.63;;
7829;SDS011;3960;51.86894000;5.39848000;2023-01-28T02:49:39;10.27;;;7.30;;
7829;SDS011;3960;51.86894000;5.39848000;2023-01-28T03:02:21;11.35;;;7.55;;
7829;SDS011;3960;51.86894000;5.39848000;2023-01-28T03:07:19;10.07;;;6.85;;
7829;SDS011;3960;51.86894000;5.39848000;2023-01-28T03:09:47;11.38;;;7.63;;
7829;SDS011;3960;51.86894000;5.39848000;2023-01-28T03:12:17;9.85;;;7.13;;
7829;SDS011;3960;51.86894000;5.39848000;2023-01-28T03:15:08;10.35;;;7.20;;
7829;SDS011;3960;51.86894000;5.39848000;2023-01-28T03:21:31;9.63;;;6.68;;
7829;SDS011;3960;51.86894000;5.39848000;2023-01-28T03:24:23;11.05;;;7.30;;
7829;SDS011;3960;51.86894000;5.39848000;2023-01-28T03:27:16;10.23;;;7.38;;
7829;SDS011;3960;51.86894000;5.39848000;2023-01-28T03:30:03;9.27;;;6.97;;
7829;SDS011;3960;51.86894000;5.39848000;2023-01-28T03:32:52;9.25;;;6.68;;
7829;SDS011;3960;51.86894000;5.39848000;2023-01-28T03:35:37;10.20;;;6.95;;
7829;SDS011;3960;51.86894000;5.39848000;2023-01-28T03:38:21;12.10;;;7.32;;
7829;SDS011;3960;51.86894000;5.39848000;2023-01-28T03:40:48;9.27;;;7.13;;
7829;SDS011;3960;51.86894000;5.39848000;2023-01-28T03:43:21;10.55;;;7.30;;
7829;SDS011;3960;51.86894000;5.39848000;2023-01-28T03:45:47;9.05;;;6.82;;
7829;SDS011;3960;51.86894000;5.39848000;2023-01-28T03:48:15;9.73;;;6.68;;
7829;SDS011;3960;51.86894000;5.39848000;2023-01-28T03:50:44;9.63;;;7.15;;
7829;SDS011;3960;51.86894000;5.39848000;2023-01-28T03:53:10;9.63;;;7.43;;
7829;SDS011;3960;51.86894000;5.39848000;2023-01-28T03:55:39;9.70;;;7.70;;
7829;SDS011;3960;51.86894000;5.39848000;2023-01-28T03:58:05;10.00;;;7.40;;
7829;SDS011;3960;51.86894000;5.39848000;2023-01-28T04:00:31;11.10;;;7.30;;
7829;SDS011;3960;51.86894000;5.39848000;2023-01-28T04:02:57;9.65;;;7.32;;
7829;SDS011;3960;51.86894000;5.39848000;2023-01-28T04:05:22;11.25;;;8.10;;
7829;SDS011;3960;51.86894000;5.39848000;2023-01-28T04:07:54;10.93;;;7.20;;
7829;SDS011;3960;51.86894000;5.39848000;2023-01-28T04:10:20;10.52;;;7.53;;
7829;SDS011;3960;51.86894000;5.39848000;2023-01-28T04:12:45;10.68;;;7.38;;
7829;SDS011;3960;51.86894000;5.39848000;2023-01-28T04:15:13;10.95;;;7.78;;
7829;SDS011;3960;51.86894000;5.39848000;2023-01-28T04:17:42;11.50;;;7.82;;
7829;SDS011;3960;51.86894000;5.39848000;2023-01-28T04:20:12;10.73;;;7.57;;
7829;SDS011;3960;51.86894000;5.39848000;2023-01-28T04:22:37;9.95;;;7.80;;
7829;SDS011;3960;51.86894000;5.39848000;2023-01-28T04:25:03;10.68;;;7.50;;
7829;SDS011;3960;51.86894000;5.39848000;2023-01-28T04:27:28;10.80;;;7.65;;
7829;SDS011;3960;51.86894000;5.39848000;2023-01-28T04:29:53;11.10;;;8.30;;
7829;SDS011;3960;51.86894000;5.39848000;2023-01-28T04:32:19;11.75;;;7.93;;
7829;SDS011;3960;51.86894000;5.39848000;2023-01-28T04:34:44;11.40;;;7.90;;
7829;SDS011;3960;51.86894000;5.39848000;2023-01-28T04:37:09;12.68;;;8.60;;
7829;SDS011;3960;51.86894000;5.39848000;2023-01-28T04:39:34;12.65;;;7.82;;
7829;SDS011;3960;51.86894000;5.39848000;2023-01-28T04:42:00;13.23;;;8.23;;
7829;SDS011;3960;51.86894000;5.39848000;2023-01-28T04:44:25;11.68;;;8.18;;
7829;SDS011;3960;51.86894000;5.39848000;2023-01-28T04:46:50;10.65;;;7.80;;
7829;SDS011;3960;51.86894000;5.39848000;2023-01-28T04:49:15;12.02;;;8.48;;
7829;SDS011;3960;51.86894000;5.39848000;2023-01-28T04:51:41;11.27;;;8.15;;
7829;SDS011;3960;51.86894000;5.39848000;2023-01-28T04:54:06;11.68;;;7.70;;
7829;SDS011;3960;51.86894000;5.39848000;2023-01-28T04:56:31;11.82;;;7.82;;
7829;SDS011;3960;51.86894000;5.39848000;2023-01-28T04:58:57;11.13;;;7.38;;
7829;SDS011;3960;51.86894000;5.39848000;2023-01-28T05:01:22;10.57;;;7.78;;
7829;SDS011;3960;51.86894000;5.39848000;2023-01-28T05:03:49;11.55;;;8.13;;
7829;SDS011;3960;51.86894000;5.39848000;2023-01-28T05:06:14;11.05;;;8.05;;
7829;SDS011;3960;51.86894000;5.39848000;2023-01-28T05:08:40;11.52;;;8.57;;
7829;SDS011;3960;51.86894000;5.39848000;2023-01-28T05:11:05;13.18;;;8.82;;
7829;SDS011;3960;51.86894000;5.39848000;2023-01-28T05:13:30;12.43;;;8.57;;
7829;SDS011;3960;51.86894000;5.39848000;2023-01-28T05:15:55;12.82;;;8.75;;
7829;SDS011;3960;51.86894000;5.39848000;2023-01-28T05:18:21;13.05;;;9.07;;
7829;SDS011;3960;51.86894000;5.39848000;2023-01-28T05:20:46;13.10;;;8.45;;
7829;SDS011;3960;51.86894000;5.39848000;2023-01-28T05:23:11;13.95;;;9.30;;
7829;SDS011;3960;51.86894000;5.39848000;2023-01-28T05:25:37;13.55;;;9.02;;
7829;SDS011;3960;51.86894000;5.39848000;2023-01-28T05:28:02;13.30;;;9.30;;
7829;SDS011;3960;51.86894000;5.39848000;2023-01-28T05:30:27;12.15;;;9.13;;
7829;SDS011;3960;51.86894000;5.39848000;2023-01-28T05:32:55;12.75;;;9.13;;
7829;SDS011;3960;51.86894000;5.39848000;2023-01-28T05:35:21;12.45;;;9.00;;
7829;SDS011;3960;51.86894000;5.39848000;2023-01-28T05:37:47;13.82;;;9.88;;
7829;SDS011;3960;51.86894000;5.39848000;2023-01-28T05:40:12;13.07;;;9.35;;
7829;SDS011;3960;51.86894000;5.39848000;2023-01-28T05:42:38;13.32;;;8.88;;
7829;SDS011;3960;51.86894000;5.39848000;2023-01-28T05:45:03;12.77;;;8.93;;
7829;SDS011;3960;51.86894000;5.39848000;2023-01-28T05:47:29;13.55;;;8.60;;
7829;SDS011;3960;51.86894000;5.39848000;2023-01-28T05:49:54;11.90;;;8.68;;
7829;SDS011;3960;51.86894000;5.39848000;2023-01-28T05:52:19;12.00;;;8.35;;
7829;SDS011;3960;51.86894000;5.39848000;2023-01-28T05:54:45;11.98;;;8.35;;
7829;SDS011;3960;51.86894000;5.39848000;2023-01-28T05:57:10;12.45;;;8.60;;
7829;SDS011;3960;51.86894000;5.39848000;2023-01-28T05:59:35;12.10;;;8.80;;
7829;SDS011;3960;51.86894000;5.39848000;2023-01-28T06:02:00;11.65;;;8.77;;
7829;SDS011;3960;51.86894000;5.39848000;2023-01-28T06:04:26;11.18;;;8.35;;
7829;SDS011;3960;51.86894000;5.39848000;2023-01-28T06:06:51;11.32;;;8.30;;
7829;SDS011;3960;51.86894000;5.39848000;2023-01-28T06:09:16;10.98;;;8.02;;
7829;SDS011;3960;51.86894000;5.39848000;2023-01-28T06:11:42;11.43;;;8.30;;
7829;SDS011;3960;51.86894000;5.39848000;2023-01-28T06:14:08;12.05;;;8.82;;
7829;SDS011;3960;51.86894000;5.39848000;2023-01-28T06:16:33;10.82;;;8.48;;
7829;SDS011;3960;51.86894000;5.39848000;2023-01-28T06:18:59;10.60;;;8.23;;
7829;SDS011;3960;51.86894000;5.39848000;2023-01-28T06:21:24;10.63;;;8.00;;
7829;SDS011;3960;51.86894000;5.39848000;2023-01-28T06:23:50;12.07;;;8.77;;
7829;SDS011;3960;51.86894000;5.39848000;2023-01-28T06:26:15;11.30;;;8.50;;
7829;SDS011;3960;51.86894000;5.39848000;2023-01-28T06:28:40;11.23;;;8.35;;
7829;SDS011;3960;51.86894000;5.39848000;2023-01-28T06:31:05;12.18;;;8.68;;
7829;SDS011;3960;51.86894000;5.39848000;2023-01-28T06:33:31;12.73;;;8.60;;
7829;SDS011;3960;51.86894000;5.39848000;2023-01-28T06:35:56;11.20;;;8.85;;
7829;SDS011;3960;51.86894000;5.39848000;2023-01-28T06:38:22;11.30;;;8.13;;
7829;SDS011;3960;51.86894000;5.39848000;2023-01-28T06:40:51;10.02;;;7.80;;
7829;SDS011;3960;51.86894000;5.39848000;2023-01-28T06:43:17;11.73;;;7.95;;
7829;SDS011;3960;51.86894000;5.39848000;2023-01-28T06:45:42;10.85;;;8.73;;
7829;SDS011;3960;51.86894000;5.39848000;2023-01-28T06:48:07;11.98;;;8.10;;
7829;SDS011;3960;51.86894000;5.39848000;2023-01-28T06:50:32;11.27;;;7.93;;
7829;SDS011;3960;51.86894000;5.39848000;2023-01-28T06:52:58;10.88;;;8.07;;
7829;SDS011;3960;51.86894000;5.39848000;2023-01-28T06:55:23;10.82;;;7.80;;
7829;SDS011;3960;51.86894000;5.39848000;2023-01-28T06:57:48;12.52;;;8.32;;
7829;SDS011;3960;51.86894000;5.39848000;2023-01-28T07:00:14;10.25;;;7.78;;
7829;SDS011;3960;51.86894000;5.39848000;2023-01-28T07:02:42;10.98;;;7.63;;
7829;SDS011;3960;51.86894000;5.39848000;2023-01-28T07:05:07;10.82;;;8.32;;
7829;SDS011;3960;51.86894000;5.39848000;2023-01-28T07:07:33;11.25;;;8.05;;
7829;SDS011;3960;51.86894000;5.39848000;2023-01-28T07:09:58;10.75;;;7.70;;
7829;SDS011;3960;51.86894000;5.39848000;2023-01-28T07:12:23;10.50;;;7.93;;
7829;SDS011;3960;51.86894000;5.39848000;2023-01-28T07:14:49;11.90;;;8.30;;
7829;SDS011;3960;51.86894000;5.39848000;2023-01-28T07:17:14;11.68;;;8.25;;
7829;SDS011;3960;51.86894000;5.39848000;2023-01-28T07:19:39;12.18;;;8.35;;
7829;SDS011;3960;51.86894000;5.39848000;2023-01-28T07:22:05;10.02;;;8.00;;
7829;SDS011;3960;51.86894000;5.39848000;2023-01-28T07:24:30;9.70;;;7.88;;
7829;SDS011;3960;51.86894000;5.39848000;2023-01-28T07:26:55;11.32;;;7.82;;
7829;SDS011;3960;51.86894000;5.39848000;2023-01-28T07:29:21;10.55;;;7.80;;
7829;SDS011;3960;51.86894000;5.39848000;2023-01-28T07:31:46;10.77;;;8.00;;
7829;SDS011;3960;51.86894000;5.39848000;2023-01-28T07:34:11;11.70;;;8.40;;
7829;SDS011;3960;51.86894000;5.39848000;2023-01-28T07:36:37;9.40;;;7.35;;
7829;SDS011;3960;51.86894000;5.39848000;2023-01-28T07:39:02;10.75;;;8.05;;
7829;SDS011;3960;51.86894000;5.39848000;2023-01-28T07:41:28;10.65;;;7.85;;
7829;SDS011;3960;51.86894000;5.39848000;2023-01-28T07:43:53;11.13;;;8.07;;
7829;SDS011;3960;51.86894000;5.39848000;2023-01-28T07:46:19;11.43;;;7.97;;
7829;SDS011;3960;51.86894000;5.39848000;2023-01-28T07:48:44;11.20;;;8.30;;
7829;SDS011;3960;51.86894000;5.39848000;2023-01-28T07:51:10;12.45;;;7.65;;
7829;SDS011;3960;51.86894000;5.39848000;2023-01-28T07:53:35;10.68;;;8.27;;
7829;SDS011;3960;51.86894000;5.39848000;2023-01-28T07:56:01;13.75;;;8.32;;
7829;SDS011;3960;51.86894000;5.39848000;2023-01-28T07:58:26;10.70;;;7.95;;
7829;SDS011;3960;51.86894000;5.39848000;2023-01-28T08:00:55;10.70;;;8.10;;
7829;SDS011;3960;51.86894000;5.39848000;2023-01-28T08:03:22;11.85;;;7.53;;
7829;SDS011;3960;51.86894000;5.39848000;2023-01-28T08:05:48;10.65;;;7.90;;
7829;SDS011;3960;51.86894000;5.39848000;2023-01-28T08:08:15;12.68;;;8.45;;
7829;SDS011;3960;51.86894000;5.39848000;2023-01-28T08:10:41;12.20;;;8.80;;
7829;SDS011;3960;51.86894000;5.39848000;2023-01-28T08:13:08;12.07;;;7.90;;
7829;SDS011;3960;51.86894000;5.39848000;2023-01-28T08:15:34;10.48;;;7.45;;
7829;SDS011;3960;51.86894000;5.39848000;2023-01-28T08:18:01;14.23;;;7.25;;
7829;SDS011;3960;51.86894000;5.39848000;2023-01-28T08:20:28;12.85;;;8.27;;
7829;SDS011;3960;51.86894000;5.39848000;2023-01-28T08:23:03;12.32;;;7.88;;
7829;SDS011;3960;51.86894000;5.39848000;2023-01-28T08:25:29;11.88;;;7.95;;
7829;SDS011;3960;51.86894000;5.39848000;2023-01-28T08:27:54;10.02;;;7.10;;
7829;SDS011;3960;51.86894000;5.39848000;2023-01-28T08:30:20;12.63;;;6.68;;
7829;SDS011;3960;51.86894000;5.39848000;2023-01-28T08:32:45;10.23;;;7.22;;
7829;SDS011;3960;51.86894000;5.39848000;2023-01-28T08:35:10;10.23;;;7.30;;
7829;SDS011;3960;51.86894000;5.39848000;2023-01-28T08:37:36;10.60;;;7.13;;
7829;SDS011;3960;51.86894000;5.39848000;2023-01-28T08:40:01;10.80;;;7.72;;
7829;SDS011;3960;51.86894000;5.39848000;2023-01-28T08:42:26;9.27;;;6.75;;
7829;SDS011;3960;51.86894000;5.39848000;2023-01-28T08:44:52;10.60;;;7.50;;
7829;SDS011;3960;51.86894000;5.39848000;2023-01-28T08:47:17;12.25;;;7.88;;
7829;SDS011;3960;51.86894000;5.39848000;2023-01-28T08:49:42;12.23;;;7.32;;
7829;SDS011;3960;51.86894000;5.39848000;2023-01-28T08:52:08;10.77;;;7.72;;
7829;SDS011;3960;51.86894000;5.39848000;2023-01-28T08:54:33;11.73;;;7.65;;
7829;SDS011;3960;51.86894000;5.39848000;2023-01-28T08:57:00;10.57;;;7.43;;
7829;SDS011;3960;51.86894000;5.39848000;2023-01-28T08:59:25;12.05;;;8.45;;
7829;SDS011;3960;51.86894000;5.39848000;2023-01-28T09:01:51;14.07;;;7.80;;
7829;SDS011;3960;51.86894000;5.39848000;2023-01-28T09:04:16;11.15;;;7.55;;
7829;SDS011;3960;51.86894000;5.39848000;2023-01-28T09:06:41;12.57;;;7.95;;
7829;SDS011;3960;51.86894000;5.39848000;2023-01-28T09:09:07;11.95;;;8.05;;
7829;SDS011;3960;51.86894000;5.39848000;2023-01-28T09:11:32;10.57;;;7.70;;
7829;SDS011;3960;51.86894000;5.39848000;2023-01-28T09:13:57;10.20;;;7.45;;
7829;SDS011;3960;51.86894000;5.39848000;2023-01-28T09:16:23;11.05;;;7.85;;
7829;SDS011;3960;51.86894000;5.39848000;2023-01-28T09:18:48;14.90;;;8.43;;
7829;SDS011;3960;51.86894000;5.39848000;2023-01-28T09:21:15;10.20;;;7.28;;
7829;SDS011;3960;51.86894000;5.39848000;2023-01-28T09:23:41;14.20;;;9.18;;
7829;SDS011;3960;51.86894000;5.39848000;2023-01-28T09:26:06;13.05;;;8.30;;
7829;SDS011;3960;51.86894000;5.39848000;2023-01-28T09:28:32;12.00;;;8.77;;
7829;SDS011;3960;51.86894000;5.39848000;2023-01-28T09:31:04;12.25;;;7.78;;
7829;SDS011;3960;51.86894000;5.39848000;2023-01-28T09:33:30;11.57;;;7.60;;
7829;SDS011;3960;51.86894000;5.39848000;2023-01-28T09:35:59;11.40;;;7.75;;
7829;SDS011;3960;51.86894000;5.39848000;2023-01-28T09:38:30;12.50;;;7.90;;
7829;SDS011;3960;51.86894000;5.39848000;2023-01-28T09:40:55;11.80;;;8.60;;
7829;SDS011;3960;51.86894000;5.39848000;2023-01-28T09:45:57;11.25;;;8.52;;
7829;SDS011;3960;51.86894000;5.39848000;2023-01-28T09:48:28;13.25;;;7.85;;
7829;SDS011;3960;51.86894000;5.39848000;2023-01-28T09:50:57;12.57;;;7.97;;
7829;SDS011;3960;51.86894000;5.39848000;2023-01-28T09:58:26;10.57;;;7.85;;
7829;SDS011;3960;51.86894000;5.39848000;2023-01-28T10:08:59;9.45;;;7.05;;
7829;SDS011;3960;51.86894000;5.39848000;2023-01-28T10:11:49;10.10;;;7.43;;
7829;SDS011;3960;51.86894000;5.39848000;2023-01-28T10:19:29;8.93;;;6.82;;
7829;SDS011;3960;51.86894000;5.39848000;2023-01-28T10:22:04;10.60;;;7.22;;
7829;SDS011;3960;51.86894000;5.39848000;2023-01-28T10:24:34;9.32;;;6.63;;
7829;SDS011;3960;51.86894000;5.39848000;2023-01-28T10:27:11;8.60;;;6.15;;
7829;SDS011;3960;51.86894000;5.39848000;2023-01-28T10:29:40;10.65;;;7.07;;
7829;SDS011;3960;51.86894000;5.39848000;2023-01-28T10:32:23;13.15;;;6.90;;
7829;SDS011;3960;51.86894000;5.39848000;2023-01-28T10:34:53;9.80;;;6.40;;
7829;SDS011;3960;51.86894000;5.39848000;2023-01-28T10:37:20;11.75;;;6.25;;
7829;SDS011;3960;51.86894000;5.39848000;2023-01-28T10:39:46;10.20;;;5.57;;
7829;SDS011;3960;51.86894000;5.39848000;2023-01-28T10:47:52;7.80;;;5.72;;
7829;SDS011;3960;51.86894000;5.39848000;2023-01-28T10:50:24;8.30;;;5.70;;
7829;SDS011;3960;51.86894000;5.39848000;2023-01-28T10:52:56;8.43;;;6.03;;
7829;SDS011;3960;51.86894000;5.39848000;2023-01-28T10:55:23;12.48;;;6.10;;
7829;SDS011;3960;51.86894000;5.39848000;2023-01-28T10:57:53;8.85;;;6.30;;
7829;SDS011;3960;51.86894000;5.39848000;2023-01-28T11:00:22;8.77;;;5.15;;
7829;SDS011;3960;51.86894000;5.39848000;2023-01-28T11:02:48;8.18;;;4.85;;
7829;SDS011;3960;51.86894000;5.39848000;2023-01-28T11:05:18;7.88;;;5.10;;
7829;SDS011;3960;51.86894000;5.39848000;2023-01-28T11:10:39;7.00;;;4.50;;
7829;SDS011;3960;51.86894000;5.39848000;2023-01-28T11:13:06;6.55;;;4.68;;
7829;SDS011;3960;51.86894000;5.39848000;2023-01-28T11:15:48;6.80;;;4.38;;
7829;SDS011;3960;51.86894000;5.39848000;2023-01-28T11:18:19;7.93;;;5.10;;
7829;SDS011;3960;51.86894000;5.39848000;2023-01-28T11:20:56;8.35;;;5.18;;
7829;SDS011;3960;51.86894000;5.39848000;2023-01-28T11:23:30;7.07;;;4.13;;
7829;SDS011;3960;51.86894000;5.39848000;2023-01-28T11:26:05;5.80;;;4.30;;
7829;SDS011;3960;51.86894000;5.39848000;2023-01-28T11:28:33;6.60;;;4.90;;
7829;SDS011;3960;51.86894000;5.39848000;2023-01-28T11:31:03;8.50;;;5.20;;
7829;SDS011;3960;51.86894000;5.39848000;2023-01-28T11:33:36;6.43;;;4.68;;
7829;SDS011;3960;51.86894000;5.39848000;2023-01-28T11:38:30;6.53;;;4.72;;
7829;SDS011;3960;51.86894000;5.39848000;2023-01-28T11:40:56;6.32;;;4.82;;
7829;SDS011;3960;51.86894000;5.39848000;2023-01-28T11:43:25;8.00;;;5.20;;
7829;SDS011;3960;51.86894000;5.39848000;2023-01-28T11:45:56;8.02;;;4.78;;
7829;SDS011;3960;51.86894000;5.39848000;2023-01-28T11:48:49;6.82;;;4.65;;
7829;SDS011;3960;51.86894000;5.39848000;2023-01-28T11:51:23;7.30;;;4.82;;
7829;SDS011;3960;51.86894000;5.39848000;2023-01-28T11:59:48;8.85;;;5.00;;
7829;SDS011;3960;51.86894000;5.39848000;2023-01-28T12:07:52;6.63;;;4.53;;
7829;SDS011;3960;51.86894000;5.39848000;2023-01-28T12:10:47;7.28;;;4.75;;
7829;SDS011;3960;51.86894000;5.39848000;2023-01-28T12:19:02;8.60;;;4.20;;
7829;SDS011;3960;51.86894000;5.39848000;2023-01-28T12:37:46;6.82;;;4.03;;
7829;SDS011;3960;51.86894000;5.39848000;2023-01-28T12:43:04;7.05;;;4.00;;
7829;SDS011;3960;51.86894000;5.39848000;2023-01-28T12:45:39;7.22;;;4.00;;
7829;SDS011;3960;51.86894000;5.39848000;2023-01-28T12:50:41;8.32;;;4.22;;
7829;SDS011;3960;51.86894000;5.39848000;2023-01-28T12:53:32;5.45;;;3.70;;
7829;SDS011;3960;51.86894000;5.39848000;2023-01-28T12:59:17;6.68;;;3.40;;
7829;SDS011;3960;51.86894000;5.39848000;2023-01-28T13:04:33;5.55;;;3.58;;
7829;SDS011;3960;51.86894000;5.39848000;2023-01-28T13:07:09;6.38;;;3.35;;
7829;SDS011;3960;51.86894000;5.39848000;2023-01-28T13:09:42;5.10;;;3.63;;
7829;SDS011;3960;51.86894000;5.39848000;2023-01-28T13:12:13;5.25;;;3.60;;
7829;SDS011;3960;51.86894000;5.39848000;2023-01-28T13:14:40;7.10;;;3.65;;
7829;SDS011;3960;51.86894000;5.39848000;2023-01-28T13:17:22;6.43;;;3.72;;
7829;SDS011;3960;51.86894000;5.39848000;2023-01-28T13:19:50;5.50;;;3.80;;
7829;SDS011;3960;51.86894000;5.39848000;2023-01-28T13:22:24;5.65;;;4.03;;
7829;SDS011;3960;51.86894000;5.39848000;2023-01-28T13:24:52;9.27;;;4.47;;
7829;SDS011;3960;51.86894000;5.39848000;2023-01-28T13:27:21;6.25;;;3.88;;
7829;SDS011;3960;51.86894000;5.39848000;2023-01-28T13:29:59;10.18;;;4.72;;
7829;SDS011;3960;51.86894000;5.39848000;2023-01-28T13:32:31;8.50;;;4.97;;
7829;SDS011;3960;51.86894000;5.39848000;2023-01-28T13:35:04;8.07;;;5.18;;
7829;SDS011;3960;51.86894000;5.39848000;2023-01-28T13:37:33;7.82;;;4.70;;
7829;SDS011;3960;51.86894000;5.39848000;2023-01-28T13:42:36;8.35;;;5.38;;
7829;SDS011;3960;51.86894000;5.39848000;2023-01-28T13:45:18;8.80;;;5.43;;
7829;SDS011;3960;51.86894000;5.39848000;2023-01-28T13:47:47;10.18;;;5.60;;
7829;SDS011;3960;51.86894000;5.39848000;2023-01-28T13:50:23;7.57;;;4.93;;
7829;SDS011;3960;51.86894000;5.39848000;2023-01-28T13:52:54;9.57;;;5.35;;
7829;SDS011;3960;51.86894000;5.39848000;2023-01-28T14:00:45;7.90;;;5.15;;
7829;SDS011;3960;51.86894000;5.39848000;2023-01-28T14:19:19;9.30;;;4.85;;
7829;SDS011;3960;51.86894000;5.39848000;2023-01-28T14:21:51;8.55;;;5.60;;
7829;SDS011;3960;51.86894000;5.39848000;2023-01-28T14:24:17;10.93;;;6.20;;
7829;SDS011;3960;51.86894000;5.39848000;2023-01-28T14:29:40;8.63;;;6.22;;
7829;SDS011;3960;51.86894000;5.39848000;2023-01-28T14:32:15;9.75;;;6.07;;
7829;SDS011;3960;51.86894000;5.39848000;2023-01-28T14:34:42;10.00;;;5.85;;
7829;SDS011;3960;51.86894000;5.39848000;2023-01-28T14:37:13;8.00;;;5.80;;
7829;SDS011;3960;51.86894000;5.39848000;2023-01-28T14:39:43;8.02;;;5.65;;
7829;SDS011;3960;51.86894000;5.39848000;2023-01-28T14:42:13;8.60;;;5.90;;
7829;SDS011;3960;51.86894000;5.39848000;2023-01-28T14:44:44;9.13;;;5.47;;
7829;SDS011;3960;51.86894000;5.39848000;2023-01-28T14:47:16;9.43;;;5.82;;
7829;SDS011;3960;51.86894000;5.39848000;2023-01-28T14:56:12;8.80;;;5.68;;
7829;SDS011;3960;51.86894000;5.39848000;2023-01-28T14:58:45;7.75;;;5.70;;
7829;SDS011;3960;51.86894000;5.39848000;2023-01-28T15:01:32;9.93;;;6.32;;
7829;SDS011;3960;51.86894000;5.39848000;2023-01-28T15:03:57;9.32;;;5.65;;
7829;SDS011;3960;51.86894000;5.39848000;2023-01-28T15:06:24;10.90;;;5.80;;
7829;SDS011;3960;51.86894000;5.39848000;2023-01-28T15:09:04;9.32;;;5.68;;
7829;SDS011;3960;51.86894000;5.39848000;2023-01-28T15:11:35;8.73;;;5.50;;
7829;SDS011;3960;51.86894000;5.39848000;2023-01-28T15:14:03;9.75;;;5.80;;
7829;SDS011;3960;51.86894000;5.39848000;2023-01-28T15:16:37;7.68;;;5.18;;
7829;SDS011;3960;51.86894000;5.39848000;2023-01-28T15:19:04;9.30;;;5.93;;
7829;SDS011;3960;51.86894000;5.39848000;2023-01-28T15:21:32;10.90;;;5.68;;
7829;SDS011;3960;51.86894000;5.39848000;2023-01-28T15:23:59;7.10;;;5.00;;
7829;SDS011;3960;51.86894000;5.39848000;2023-01-28T15:26:28;8.88;;;5.40;;
7829;SDS011;3960;51.86894000;5.39848000;2023-01-28T15:28:56;8.10;;;5.45;;